Time;durP1;ratioP1;P1;durP2;ratioP2;P2;SDS_P1;SDS_P2;PMS_P1;PMS_P2;Temp;Humidity;BMP_temperature;BMP_pressure;BME280_temperature;BME280_humidity;BME280_pressure;Samples;Min_cycle;Max_cycle;Signal;HPM_P1;HPM_P2
2023/07/22 00:02:23;;;;;;;4.27;3.83;;;14.70;99.90;;;;;;5031748;28;20217;-68
2023/07/22 00:04:49;;;;;;;3.70;3.40;;;14.60;99.90;;;;;;5032098;28;20181;-68
2023/07/22 00:07:15;;;;;;;4.17;3.83;;;14.60;99.90;;;;;;5031938;28;20257;-68
2023/07/22 00:09:43;;;;;;;3.77;3.47;;;14.60;99.90;;;;;;5031617;28;20455;-68
2023/07/22 00:12:08;;;;;;;3.57;3.27;;;14.60;99.90;;;;;;5031662;28;20210;-68
2023/07/22 00:14:38;;;;;;;4.20;3.90;;;14.50;99.90;;;;;;5031691;28;20427;-68
2023/07/22 00:17:04;;;;;;;3.87;3.57;;;14.50;99.90;;;;;;5032035;28;20204;-68
2023/07/22 00:19:30;;;;;;;3.97;3.67;;;14.40;99.90;;;;;;5031541;28;20452;-67
2023/07/22 00:21:55;;;;;;;3.63;3.33;;;14.30;99.90;;;;;;5031619;28;20460;-68
2023/07/22 00:24:22;;;;;;;3.60;3.30;;;14.30;99.90;;;;;;5031759;28;20539;-67
2023/07/22 00:26:49;;;;;;;4.23;3.50;;;14.30;99.90;;;;;;5031636;28;20170;-68
2023/07/22 00:29:15;;;;;;;4.07;3.77;;;14.30;99.90;;;;;;5032271;28;20413;-68
2023/07/22 00:31:41;;;;;;;4.90;4.40;;;14.30;99.90;;;;;;5035738;28;20782;-68
2023/07/22 00:34:06;;;;;;;6.93;6.23;;;14.30;99.90;;;;;;5035550;28;20166;-68
2023/07/22 00:36:32;;;;;;;4.90;3.97;;;14.20;99.90;;;;;;5035613;28;20443;-67
2023/07/22 00:38:57;;;;;;;5.03;3.17;;;14.20;99.90;;;;;;5035158;28;20192;-67
2023/07/22 00:41:23;;;;;;;3.90;3.60;;;14.30;99.90;;;;;;5035231;28;20206;-68
2023/07/22 00:43:48;;;;;;;3.57;3.27;;;14.20;99.90;;;;;;5035280;28;20652;-68
2023/07/22 00:46:14;;;;;;;4.13;3.70;;;14.20;99.90;;;;;;5035286;28;20174;-68
2023/07/22 00:48:40;;;;;;;3.83;3.53;;;14.20;99.90;;;;;;5035152;28;20216;-68
2023/07/22 00:51:05;;;;;;;3.60;3.30;;;14.20;99.90;;;;;;5035246;28;20208;-68
2023/07/22 00:53:31;;;;;;;3.93;3.60;;;14.10;99.90;;;;;;5035351;28;20500;-68
2023/07/22 00:55:56;;;;;;;8.53;3.07;;;14.10;99.90;;;;;;5035089;28;20179;-68
2023/07/22 00:58:23;;;;;;;3.80;3.47;;;14.10;99.90;;;;;;5034694;28;20178;-68
2023/07/22 01:00:48;;;;;;;4.23;3.83;;;14.00;99.90;;;;;;5035102;28;20912;-68
2023/07/22 01:03:14;;;;;;;4.07;3.33;;;14.00;99.90;;;;;;5035290;28;20413;-68
2023/07/22 01:05:40;;;;;;;5.73;4.80;;;14.00;99.90;;;;;;5035001;28;20175;-68
2023/07/22 01:08:06;;;;;;;5.20;4.20;;;13.90;99.90;;;;;;5034921;28;20198;-68
2023/07/22 01:10:32;;;;;;;3.70;3.40;;;13.90;99.90;;;;;;5034455;28;20618;-68
2023/07/22 01:12:57;;;;;;;3.10;2.80;;;13.80;99.90;;;;;;5034826;28;20587;-68
2023/07/22 01:15:24;;;;;;;4.83;3.87;;;13.80;99.90;;;;;;5035022;28;20188;-68
2023/07/22 01:17:50;;;;;;;4.33;3.27;;;13.90;99.90;;;;;;5034951;28;20202;-68
2023/07/22 01:20:18;;;;;;;4.47;2.90;;;13.90;99.90;;;;;;5034400;28;20996;-67
2023/07/22 01:22:53;;;;;;;3.87;3.47;;;13.90;99.90;;;;;;5034580;28;20464;-68
2023/07/22 01:25:22;;;;;;;5.23;3.73;;;13.90;99.90;;;;;;5034573;28;20417;-68
2023/07/22 01:27:49;;;;;;;3.53;3.23;;;13.90;99.90;;;;;;5034551;28;20425;-67
2023/07/22 01:30:15;;;;;;;3.50;3.20;;;13.90;99.90;;;;;;5034162;28;20421;-68
2023/07/22 01:32:40;;;;;;;3.33;3.03;;;13.90;99.90;;;;;;5034435;28;20431;-68
2023/07/22 01:35:10;;;;;;;3.97;3.27;;;13.90;99.90;;;;;;5034477;28;20202;-68
2023/07/22 01:37:35;;;;;;;3.17;2.97;;;14.00;99.90;;;;;;5034394;28;20527;-68
2023/07/22 01:40:11;;;;;;;4.80;3.70;;;14.00;99.90;;;;;;5033532;28;20463;-68
2023/07/22 01:42:40;;;;;;;5.20;3.70;;;14.00;99.90;;;;;;5034396;28;20221;-68
2023/07/22 01:45:10;;;;;;;3.30;3.10;;;13.90;99.90;;;;;;5034387;28;20413;-67
2023/07/22 01:47:36;;;;;;;2.93;2.73;;;13.90;99.90;;;;;;5034216;28;20941;-68
2023/07/22 01:50:02;;;;;;;3.70;3.40;;;13.80;99.90;;;;;;5033757;28;20848;-68
2023/07/22 01:52:28;;;;;;;3.30;3.00;;;13.70;99.90;;;;;;5033987;28;20814;-67
2023/07/22 01:54:54;;;;;;;3.57;3.17;;;13.60;99.90;;;;;;5033984;28;20421;-67
2023/07/22 01:57:19;;;;;;;4.07;3.73;;;13.60;99.90;;;;;;5034007;28;20178;-69
2023/07/22 01:59:45;;;;;;;3.27;3.07;;;13.60;99.90;;;;;;5033664;28;20315;-68
2023/07/22 02:02:10;;;;;;;3.90;3.60;;;13.60;99.90;;;;;;5033853;28;20593;-68
2023/07/22 02:04:36;;;;;;;4.30;3.77;;;13.60;99.90;;;;;;5033865;28;20648;-68
2023/07/22 02:07:01;;;;;;;6.83;4.33;;;13.60;99.90;;;;;;5033802;28;20182;-68
2023/07/22 02:09:27;;;;;;;4.23;3.63;;;13.60;99.90;;;;;;5033394;28;20178;-68
2023/07/22 02:11:53;;;;;;;3.90;3.50;;;13.70;99.90;;;;;;5033520;28;20636;-68
2023/07/22 02:14:19;;;;;;;4.17;3.07;;;13.60;99.90;;;;;;5033832;28;20205;-68
2023/07/22 02:16:45;;;;;;;3.97;3.67;;;13.50;99.90;;;;;;5033619;28;20425;-68
2023/07/22 02:19:10;;;;;;;3.93;3.63;;;13.40;99.90;;;;;;5033308;28;20170;-67
2023/07/22 02:21:35;;;;;;;3.87;3.57;;;13.40;99.90;;;;;;5033310;28;20238;-67
2023/07/22 02:24:01;;;;;;;3.80;3.50;;;13.40;99.90;;;;;;5033643;28;20178;-68
2023/07/22 02:26:27;;;;;;;4.13;3.73;;;13.40;99.90;;;;;;5033450;28;20253;-68
2023/07/22 02:28:52;;;;;;;4.03;3.30;;;13.40;99.90;;;;;;5033067;28;20179;-68
2023/07/22 02:31:18;;;;;;;5.63;3.70;;;13.50;99.90;;;;;;5033401;28;20209;-68
2023/07/22 02:33:43;;;;;;;3.60;3.30;;;13.40;99.90;;;;;;5033256;28;20178;-68
2023/07/22 02:36:09;;;;;;;4.77;4.00;;;13.50;99.90;;;;;;5033226;28;20543;-67
2023/07/22 02:38:34;;;;;;;4.33;4.03;;;13.40;99.90;;;;;;5032891;28;20210;-68
2023/07/22 02:41:06;;;;;;;3.60;3.30;;;13.40;99.90;;;;;;5032983;28;20209;-67
2023/07/22 02:43:32;;;;;;;4.30;3.83;;;13.40;99.90;;;;;;5033120;28;20174;-68
2023/07/22 02:45:59;;;;;;;3.70;3.37;;;13.40;99.90;;;;;;5033079;28;20421;-68
2023/07/22 02:48:24;;;;;;;4.33;3.93;;;13.30;99.90;;;;;;5032764;28;20805;-68
2023/07/22 02:50:50;;;;;;;4.73;4.33;;;13.30;99.90;;;;;;5032806;28;20456;-68
2023/07/22 02:53:15;;;;;;;4.33;3.90;;;13.30;99.90;;;;;;5032114;28;20174;-68
2023/07/22 02:55:41;;;;;;;5.33;3.93;;;13.30;99.90;;;;;;5032866;28;20166;-68
2023/07/22 02:58:06;;;;;;;4.27;3.87;;;13.20;99.90;;;;;;5032989;28;20565;-67
2023/07/22 03:00:32;;;;;;;3.60;3.30;;;13.20;99.90;;;;;;5032571;28;20193;-68
2023/07/22 03:03:00;;;;;;;4.70;3.80;;;13.30;99.90;;;;;;5033028;28;20670;-68
2023/07/22 03:05:28;;;;;;;3.77;3.47;;;13.30;99.90;;;;;;5032623;28;20666;-67
2023/07/22 03:07:53;;;;;;;3.50;3.20;;;13.30;99.90;;;;;;5032802;28;20433;-68
2023/07/22 03:10:19;;;;;;;4.30;3.90;;;13.30;99.90;;;;;;5032227;28;20490;-68
2023/07/22 03:12:44;;;;;;;4.97;4.57;;;13.30;99.90;;;;;;5032707;28;20659;-68
2023/07/22 03:15:12;;;;;;;2.90;2.70;;;13.40;99.90;;;;;;5032506;28;20727;-68
2023/07/22 03:17:39;;;;;;;3.90;3.60;;;13.40;99.90;;;;;;5032622;28;20214;-68
2023/07/22 03:20:08;;;;;;;4.90;3.77;;;13.40;99.90;;;;;;5032286;28;21168;-68
2023/07/22 03:22:34;;;;;;;3.93;3.50;;;13.40;99.90;;;;;;5032183;28;21020;-68
2023/07/22 03:24:59;;;;;;;4.20;3.80;;;13.30;99.90;;;;;;5032321;28;20448;-68
2023/07/22 03:27:25;;;;;;;4.17;3.80;;;13.30;99.90;;;;;;5032405;28;20170;-67
2023/07/22 03:29:50;;;;;;;3.30;3.00;;;13.30;99.90;;;;;;5031995;28;20198;-67
2023/07/22 03:32:16;;;;;;;3.70;3.40;;;13.20;99.90;;;;;;5032227;28;20201;-68
2023/07/22 03:34:41;;;;;;;3.50;3.30;;;13.20;99.90;;;;;;5032203;28;20647;-68
2023/07/22 03:37:07;;;;;;;5.27;4.03;;;13.20;99.90;;;;;;5032365;28;20174;-68
2023/07/22 03:39:32;;;;;;;4.07;3.70;;;13.20;99.90;;;;;;5031839;28;20178;-67
2023/07/22 03:41:58;;;;;;;5.93;4.00;;;13.20;99.90;;;;;;5032010;28;20214;-67
2023/07/22 03:44:24;;;;;;;4.53;4.00;;;13.20;99.90;;;;;;5032170;28;20178;-68
2023/07/22 03:46:49;;;;;;;4.73;3.80;;;13.20;99.90;;;;;;5032199;28;20547;-68
2023/07/22 03:49:15;;;;;;;4.00;3.23;;;13.20;99.90;;;;;;5031740;28;20189;-68
2023/07/22 03:51:40;;;;;;;4.13;3.83;;;13.20;99.90;;;;;;5032078;28;20198;-68
2023/07/22 03:54:06;;;;;;;4.47;4.07;;;13.30;99.90;;;;;;5032037;28;20182;-68
2023/07/22 03:56:31;;;;;;;4.33;3.60;;;13.30;99.90;;;;;;5032074;28;20174;-68
2023/07/22 03:58:57;;;;;;;3.97;3.67;;;13.30;99.90;;;;;;5031623;28;20737;-68
2023/07/22 04:01:22;;;;;;;4.33;3.80;;;13.30;99.90;;;;;;5031845;28;20288;-68
2023/07/22 04:03:48;;;;;;;4.57;3.40;;;13.30;99.90;;;;;;5035346;28;20542;-67
2023/07/22 04:06:13;;;;;;;4.40;3.50;;;13.40;99.90;;;;;;5038439;28;20170;-68
2023/07/22 04:08:39;;;;;;;4.47;3.13;;;13.40;99.90;;;;;;5038217;28;20533;-68
2023/07/22 04:11:04;;;;;;;3.80;3.40;;;13.50;99.90;;;;;;5038297;28;20626;-68
2023/07/22 04:13:30;;;;;;;3.93;3.53;;;13.60;99.90;;;;;;5038468;28;20600;-68
2023/07/22 04:15:55;;;;;;;4.13;3.20;;;13.60;99.90;;;;;;5038427;28;20677;-68
2023/07/22 04:18:21;;;;;;;3.77;3.47;;;13.70;99.90;;;;;;5038106;28;20174;-68
2023/07/22 04:20:48;;;;;;;3.57;3.27;;;13.70;99.90;;;;;;5038379;28;20206;-68
2023/07/22 04:23:14;;;;;;;6.10;3.57;;;13.70;99.90;;;;;;5038349;28;20163;-68
2023/07/22 04:25:40;;;;;;;4.90;3.70;;;13.80;99.90;;;;;;5038408;28;20424;-68
2023/07/22 04:28:06;;;;;;;5.83;3.77;;;13.70;99.90;;;;;;5038221;28;20408;-68
2023/07/22 04:30:31;;;;;;;3.90;3.60;;;13.80;99.90;;;;;;5037957;28;20436;-68
2023/07/22 04:32:57;;;;;;;4.83;4.33;;;13.90;99.90;;;;;;5038313;28;20176;-68
2023/07/22 04:35:22;;;;;;;4.97;4.47;;;13.90;99.90;;;;;;5038233;28;20197;-68
2023/07/22 04:37:48;;;;;;;4.20;3.90;;;14.00;99.90;;;;;;5038198;28;20167;-68
2023/07/22 04:40:15;;;;;;;5.10;4.40;;;14.10;99.90;;;;;;5037814;28;20545;-68
2023/07/22 04:42:41;;;;;;;4.80;4.30;;;14.20;99.90;;;;;;5038065;28;20319;-68
2023/07/22 04:45:09;;;;;;;5.47;4.97;;;14.30;99.90;;;;;;5038240;28;20413;-68
2023/07/22 04:47:35;;;;;;;4.60;3.43;;;14.40;99.90;;;;;;5038074;28;20192;-68
2023/07/22 04:50:01;;;;;;;4.30;3.60;;;14.50;99.90;;;;;;5037804;28;20852;-68
2023/07/22 04:52:26;;;;;;;6.60;3.80;;;14.60;99.90;;;;;;5038055;28;20440;-68
2023/07/22 04:54:53;;;;;;;3.80;3.50;;;14.80;99.90;;;;;;5038072;28;20178;-67
2023/07/22 04:57:20;;;;;;;4.27;3.67;;;14.90;99.90;;;;;;5038088;28;20166;-67
2023/07/22 04:59:45;;;;;;;4.50;4.10;;;15.10;99.90;;;;;;5037787;28;20785;-68
2023/07/22 05:02:11;;;;;;;4.10;3.60;;;15.10;99.90;;;;;;5037842;28;20455;-68
2023/07/22 05:04:37;;;;;;;4.10;3.80;;;15.10;99.90;;;;;;5038036;28;20166;-68
2023/07/22 05:07:03;;;;;;;3.87;3.57;;;15.10;99.90;;;;;;5037893;28;20420;-68
2023/07/22 05:09:28;;;;;;;4.03;3.73;;;15.10;99.90;;;;;;5037626;28;20666;-68
2023/07/22 05:11:53;;;;;;;5.23;4.50;;;15.10;99.90;;;;;;5038220;28;20221;-69
2023/07/22 05:14:20;;;;;;;3.77;3.47;;;15.10;99.90;;;;;;5037164;28;20182;-69
2023/07/22 05:16:45;;;;;;;4.10;3.67;;;15.10;99.90;;;;;;5034414;28;20261;-69
2023/07/22 05:19:11;;;;;;;5.63;4.23;;;15.10;99.90;;;;;;5034408;28;20513;-69
2023/07/22 05:21:36;;;;;;;4.90;3.93;;;15.20;99.90;;;;;;5034555;28;20280;-69
2023/07/22 05:24:02;;;;;;;4.00;3.60;;;15.30;99.90;;;;;;5034677;28;20591;-69
2023/07/22 05:26:27;;;;;;;3.50;3.20;;;15.50;99.90;;;;;;5034658;28;20254;-69
2023/07/22 05:28:53;;;;;;;4.50;3.73;;;15.60;99.90;;;;;;5034280;28;20261;-69
2023/07/22 05:31:19;;;;;;;3.80;3.23;;;15.90;99.90;;;;;;5034412;28;20198;-69
2023/07/22 05:33:44;;;;;;;4.77;3.87;;;16.00;99.90;;;;;;5034441;28;20513;-69
2023/07/22 05:36:10;;;;;;;3.97;3.67;;;16.20;99.90;;;;;;5049647;28;20236;-69
2023/07/22 05:38:35;;;;;;;5.17;3.60;;;16.40;99.90;;;;;;5034241;28;20185;-69
2023/07/22 05:41:01;;;;;;;3.73;3.53;;;16.60;99.90;;;;;;5034185;28;20203;-69
2023/07/22 05:43:27;;;;;;;3.83;3.50;;;16.80;99.90;;;;;;5034283;28;20586;-69
2023/07/22 05:45:52;;;;;;;8.10;5.20;;;17.00;99.90;;;;;;5034167;28;20178;-69
2023/07/22 05:48:18;;;;;;;3.83;3.43;;;17.30;99.90;;;;;;5034077;28;20181;-69
2023/07/22 05:50:43;;;;;;;6.17;4.07;;;17.50;99.90;;;;;;5034088;28;20183;-69
2023/07/22 05:53:09;;;;;;;4.20;3.80;;;17.70;99.90;;;;;;5034064;28;20249;-69
2023/07/22 05:55:34;;;;;;;5.77;3.33;;;17.90;99.90;;;;;;5034106;28;20590;-69
2023/07/22 05:58:05;;;;;;;3.60;3.30;;;18.10;99.90;;;;;;5034073;28;20166;-69
2023/07/22 06:00:31;;;;;;;8.70;3.77;;;18.00;99.90;;;;;;5033707;28;20312;-69
2023/07/22 06:02:56;;;;;;;6.80;3.57;;;18.00;99.90;;;;;;5033788;28;20526;-69
2023/07/22 06:05:22;;;;;;;3.30;3.00;;;18.20;99.90;;;;;;5033905;28;20424;-68
2023/07/22 06:07:47;;;;;;;3.30;3.10;;;18.20;99.90;;;;;;5033826;28;20170;-69
2023/07/22 06:10:13;;;;;;;3.87;3.57;;;18.20;99.90;;;;;;5033336;28;20240;-69
2023/07/22 06:12:39;;;;;;;4.40;3.60;;;18.30;99.90;;;;;;5033772;28;20182;-69
2023/07/22 06:15:05;;;;;;;4.03;3.67;;;18.40;99.90;;;;;;5033619;28;20652;-69
2023/07/22 06:17:30;;;;;;;3.57;3.13;;;18.50;99.90;;;;;;5033902;28;20938;-68
2023/07/22 06:19:56;;;;;;;4.20;3.17;;;18.70;99.90;;;;;;5033303;28;20421;-69
2023/07/22 06:22:22;;;;;;;4.10;3.77;;;19.00;99.90;;;;;;5033362;28;20202;-69
2023/07/22 06:24:47;;;;;;;6.40;3.57;;;19.20;99.90;;;;;;5033582;28;20232;-69
2023/07/22 06:27:12;;;;;;;3.50;3.20;;;19.50;99.90;;;;;;5032332;28;20216;-69
2023/07/22 06:29:38;;;;;;;3.30;3.10;;;19.80;99.90;;;;;;5033065;28;20574;-69
2023/07/22 06:32:04;;;;;;;3.10;2.90;;;20.10;99.90;;;;;;5033190;28;20194;-69
2023/07/22 06:34:29;;;;;;;3.80;3.50;;;20.20;99.90;;;;;;5033253;28;20727;-69
2023/07/22 06:36:55;;;;;;;3.47;3.17;;;20.40;99.90;;;;;;5033359;28;20562;-69
2023/07/22 06:39:20;;;;;;;4.57;3.07;;;20.50;99.90;;;;;;5033023;28;20174;-69
2023/07/22 06:41:46;;;;;;;3.50;3.10;;;20.50;99.90;;;;;;5033048;28;20698;-69
2023/07/22 06:44:11;;;;;;;3.87;2.90;;;20.70;99.90;;;;;;5033035;28;20177;-70
2023/07/22 06:46:37;;;;;;;2.87;2.57;;;20.80;99.90;;;;;;5033073;28;20170;-69
2023/07/22 06:49:02;;;;;;;3.43;3.13;;;20.90;99.90;;;;;;5032768;28;20171;-69
2023/07/22 06:51:28;;;;;;;2.57;2.23;;;21.30;99.90;;;;;;5032993;28;20198;-69
2023/07/22 06:53:53;;;;;;;3.20;3.00;;;21.30;99.90;;;;;;5033034;28;20228;-70
2023/07/22 06:56:19;;;;;;;2.93;2.60;;;21.30;99.90;;;;;;5032967;28;20257;-69
2023/07/22 06:58:44;;;;;;;2.93;2.70;;;21.30;99.90;;;;;;5032566;28;20863;-69
2023/07/22 07:01:10;;;;;;;2.90;2.70;;;21.20;99.90;;;;;;5032614;28;20741;-69
2023/07/22 07:03:35;;;;;;;3.80;2.90;;;21.20;99.90;;;;;;5032836;28;20170;-69
2023/07/22 07:06:01;;;;;;;3.20;2.90;;;21.20;99.90;;;;;;5032882;28;20182;-68
2023/07/22 07:08:27;;;;;;;2.90;2.63;;;21.30;99.90;;;;;;5032468;28;20170;-69
2023/07/22 07:10:52;;;;;;;2.87;2.47;;;21.40;99.90;;;;;;5032503;28;20252;-69
2023/07/22 07:13:18;;;;;;;3.00;2.70;;;21.50;99.90;;;;;;5032590;28;20235;-69
2023/07/22 07:15:48;;;;;;;3.40;3.00;;;21.30;99.90;;;;;;5032533;28;20166;-69
2023/07/22 07:18:14;;;;;;;4.40;2.93;;;21.30;99.90;;;;;;5032456;28;20197;-69
2023/07/22 07:20:39;;;;;;;2.67;2.47;;;21.40;99.90;;;;;;5032445;28;20436;-69
2023/07/22 07:23:05;;;;;;;2.27;2.07;;;21.50;99.90;;;;;;5032414;28;20202;-69
2023/07/22 07:25:30;;;;;;;3.33;3.03;;;21.60;99.90;;;;;;5032457;28;20166;-69
2023/07/22 07:27:56;;;;;;;4.80;3.47;;;22.00;99.90;;;;;;5032254;28;20568;-69
2023/07/22 07:30:21;;;;;;;4.63;3.90;;;22.20;99.90;;;;;;5031872;28;20257;-70
2023/07/22 07:32:47;;;;;;;3.10;2.87;;;22.50;99.90;;;;;;5032451;28;20206;-69
2023/07/22 07:35:12;;;;;;;2.70;2.50;;;22.50;99.90;;;;;;5032324;28;20253;-69
2023/07/22 07:37:38;;;;;;;2.80;2.60;;;22.50;99.90;;;;;;5031949;28;20265;-69
2023/07/22 07:40:04;;;;;;;3.77;2.50;;;22.90;99.90;;;;;;5032063;28;20175;-69
2023/07/22 07:42:29;;;;;;;4.60;2.73;;;23.10;99.90;;;;;;5031941;28;20202;-69
2023/07/22 07:44:55;;;;;;;3.43;3.10;;;23.30;99.90;;;;;;5032152;28;20436;-69
2023/07/22 07:47:21;;;;;;;3.03;2.73;;;23.20;99.90;;;;;;5032175;28;20170;-69
2023/07/22 07:49:46;;;;;;;2.40;2.20;;;23.30;99.90;;;;;;5031944;28;20177;-68
2023/07/22 07:52:12;;;;;;;3.33;2.80;;;23.20;99.30;;;;;;5031967;28;20198;-69
2023/07/22 07:54:37;;;;;;;2.60;2.40;;;23.10;99.90;;;;;;5032065;28;20242;-69
2023/07/22 07:57:03;;;;;;;3.30;2.90;;;23.20;99.90;;;;;;5032006;28;20174;-69
2023/07/22 07:59:29;;;;;;;4.47;3.00;;;23.40;99.50;;;;;;5031551;28;20581;-69
2023/07/22 08:01:54;;;;;;;3.47;2.90;;;23.50;98.40;;;;;;5031730;28;20209;-69
2023/07/22 08:04:20;;;;;;;2.60;2.40;;;23.50;96.60;;;;;;5031917;28;20166;-69
2023/07/22 08:06:45;;;;;;;2.67;2.43;;;23.40;97.40;;;;;;5031910;28;20189;-68
2023/07/22 08:09:11;;;;;;;3.00;2.80;;;23.50;96.70;;;;;;5031596;28;20173;-69
2023/07/22 08:11:38;;;;;;;5.53;2.83;;;23.80;95.30;;;;;;5031632;28;20748;-70
2023/07/22 08:14:05;;;;;;;2.97;2.70;;;24.00;94.60;;;;;;5031795;28;20256;-69
2023/07/22 08:16:31;;;;;;;3.17;2.87;;;24.00;93.90;;;;;;5031776;28;20424;-69
2023/07/22 08:18:56;;;;;;;2.60;2.40;;;24.20;93.90;;;;;;5031438;28;20771;-67
2023/07/22 08:21:22;;;;;;;3.33;2.40;;;24.50;93.60;;;;;;5031583;28;20194;-69
2023/07/22 08:23:47;;;;;;;2.73;2.20;;;24.40;92.30;;;;;;5031682;28;20535;-69
2023/07/22 08:26:13;;;;;;;4.27;2.20;;;24.30;92.60;;;;;;5031679;28;20228;-69
2023/07/22 08:28:39;;;;;;;2.50;2.30;;;24.30;91.00;;;;;;5031351;28;20174;-69
2023/07/22 08:31:04;;;;;;;2.80;2.60;;;24.40;90.40;;;;;;5031725;28;20284;-69
2023/07/22 08:33:31;;;;;;;3.13;2.93;;;24.40;90.50;;;;;;5031653;28;20175;-69
2023/07/22 08:35:56;;;;;;;4.00;2.47;;;24.50;90.80;;;;;;5031643;28;20179;-69
2023/07/22 08:38:22;;;;;;;3.70;2.83;;;24.70;90.30;;;;;;5031351;28;20832;-69
2023/07/22 08:40:51;;;;;;;2.30;2.10;;;25.10;88.10;;;;;;5046797;28;20202;-69
2023/07/22 08:43:20;;;;;;;2.17;1.97;;;25.20;84.60;;;;;;5031553;28;20197;-67
2023/07/22 08:45:47;;;;;;;4.57;2.40;;;25.50;85.50;;;;;;5031706;28;20417;-69
2023/07/22 08:48:18;;;;;;;4.93;2.70;;;25.70;81.40;;;;;;5031284;28;20503;-69
2023/07/22 08:50:53;;;;;;;2.60;2.40;;;26.10;75.80;;;;;;5033257;28;20982;-69
2023/07/22 08:53:19;;;;;;;4.23;2.20;;;26.50;71.00;;;;;;5035333;28;20416;-70
2023/07/22 08:55:45;;;;;;;2.33;2.13;;;26.70;68.20;;;;;;5035175;28;20417;-69
2023/07/22 08:58:11;;;;;;;2.43;2.23;;;26.70;67.30;;;;;;5035027;28;20424;-69
2023/07/22 09:00:38;;;;;;;1.93;1.83;;;26.90;65.40;;;;;;5035071;28;20640;-69
2023/07/22 09:03:04;;;;;;;2.30;2.10;;;27.20;63.40;;;;;;5034978;28;20460;-70
2023/07/22 09:05:32;;;;;;;4.27;2.50;;;26.80;61.20;;;;;;5035139;28;20512;-69
2023/07/22 09:07:58;;;;;;;2.63;2.07;;;26.00;63.50;;;;;;5034917;28;20416;-69
2023/07/22 09:10:27;;;;;;;2.20;2.00;;;25.70;63.50;;;;;;5034658;28;20519;-69
2023/07/22 09:12:53;;;;;;;2.50;1.73;;;25.60;64.50;;;;;;5034939;28;20432;-69
2023/07/22 09:15:18;;;;;;;2.77;2.20;;;25.20;63.80;;;;;;5034858;28;20421;-69
2023/07/22 09:17:44;;;;;;;3.40;2.73;;;25.20;63.10;;;;;;5034818;28;20174;-69
2023/07/22 09:20:14;;;;;;;3.50;2.50;;;25.30;62.70;;;;;;5034457;28;20254;-69
2023/07/22 09:22:44;;;;;;;3.00;2.70;;;25.00;62.20;;;;;;5034619;28;20273;-69
2023/07/22 09:25:20;;;;;;;2.73;2.13;;;24.90;63.70;;;;;;5034723;28;20409;-68
2023/07/22 09:27:50;;;;;;;2.50;2.30;;;24.90;64.40;;;;;;5034563;28;20409;-69
2023/07/22 09:30:24;;;;;;;2.30;2.10;;;24.70;64.80;;;;;;5034314;28;20499;-69
2023/07/22 09:32:50;;;;;;;2.53;1.87;;;24.50;65.50;;;;;;5034447;28;20424;-69
2023/07/22 09:35:16;;;;;;;2.30;2.10;;;24.40;66.80;;;;;;5034473;28;20775;-69
2023/07/22 09:37:42;;;;;;;3.10;2.90;;;24.70;65.70;;;;;;5034420;28;20424;-69
2023/07/22 09:40:22;;;;;;;8.80;3.33;;;25.50;65.00;;;;;;5034010;28;20483;-69
2023/07/22 09:42:56;;;;;;;2.47;2.27;;;26.10;63.10;;;;;;5034220;28;20327;-69
2023/07/22 09:45:24;;;;;;;2.23;2.13;;;26.60;62.40;;;;;;5034299;28;20942;-69
2023/07/22 09:47:51;;;;;;;2.77;2.23;;;26.70;59.90;;;;;;5034240;28;20427;-69
2023/07/22 09:50:21;;;;;;;2.70;2.50;;;27.30;60.70;;;;;;5033918;28;20973;-69
2023/07/22 09:52:48;;;;;;;2.10;1.90;;;28.00;58.40;;;;;;5034140;28;20479;-69
2023/07/22 09:55:17;;;;;;;2.10;2.00;;;27.30;57.50;;;;;;5034136;28;20417;-69
2023/07/22 09:57:45;;;;;;;2.20;2.10;;;27.30;58.00;;;;;;5034044;28;20435;-69
2023/07/22 10:00:15;;;;;;;2.07;1.93;;;27.00;57.00;;;;;;5033767;28;20462;-69
2023/07/22 10:02:43;;;;;;;2.20;2.00;;;27.10;57.30;;;;;;5033648;28;20473;-69
2023/07/22 10:05:17;;;;;;;2.50;2.30;;;26.80;56.70;;;;;;5033937;28;20423;-69
2023/07/22 10:07:50;;;;;;;2.10;1.90;;;26.70;56.50;;;;;;5033951;28;20428;-69
2023/07/22 10:10:22;;;;;;;2.87;2.57;;;26.60;53.90;;;;;;5033430;28;20429;-69
2023/07/22 10:12:48;;;;;;;3.57;1.97;;;26.60;53.10;;;;;;5033767;28;20425;-69
2023/07/22 10:15:16;;;;;;;1.93;1.83;;;26.40;52.50;;;;;;5033781;28;20423;-69
2023/07/22 10:17:42;;;;;;;2.20;1.63;;;26.30;53.70;;;;;;5033724;28;20182;-69
2023/07/22 10:20:14;;;;;;;2.60;2.40;;;25.90;54.10;;;;;;5033405;28;20431;-69
2023/07/22 10:22:44;;;;;;;2.23;1.70;;;25.80;55.70;;;;;;5033505;28;20466;-69
2023/07/22 10:25:12;;;;;;;2.43;2.30;;;26.00;56.20;;;;;;5033554;28;20421;-69
2023/07/22 10:27:40;;;;;;;2.57;2.37;;;26.20;55.50;;;;;;5033624;28;20417;-69
2023/07/22 10:30:07;;;;;;;1.87;1.77;;;26.70;55.70;;;;;;5033247;28;20424;-69
2023/07/22 10:32:35;;;;;;;2.60;2.40;;;27.50;53.70;;;;;;5033510;28;20956;-69
2023/07/22 10:35:00;;;;;;;3.10;2.33;;;27.80;53.60;;;;;;5033412;28;20424;-69
2023/07/22 10:37:33;;;;;;;2.40;2.20;;;29.00;52.00;;;;;;5033363;28;20421;-67
2023/07/22 10:40:18;;;;;;;3.03;2.13;;;30.50;49.90;;;;;;5033251;28;20193;-67
2023/07/22 10:43:03;;;;;;;2.43;2.30;;;31.60;46.90;;;;;;5033087;28;20487;-67
2023/07/22 10:45:31;;;;;;;1.90;1.80;;;31.10;45.60;;;;;;5033192;28;20417;-67
2023/07/22 10:48:08;;;;;;;3.50;2.60;;;30.60;45.80;;;;;;5033040;28;20433;-66
2023/07/22 10:50:46;;;;;;;3.53;3.23;;;30.30;46.30;;;;;;5032850;28;20857;-67
2023/07/22 10:53:14;;;;;;;2.93;2.67;;;30.90;45.50;;;;;;5033082;28;20425;-67
2023/07/22 10:56:17;;;;;;;2.50;2.30;;;32.00;44.60;;;;;;5032974;28;20915;-67
2023/07/22 10:58:45;;;;;;;3.27;3.00;;;32.70;43.60;;;;;;5032566;28;20448;-67
2023/07/22 11:01:32;;;;;;;2.60;2.40;;;33.20;41.90;;;;;;5032693;28;20476;-66
2023/07/22 11:04:16;;;;;;;3.50;2.67;;;32.60;41.00;;;;;;5032786;28;20424;-67
2023/07/22 11:06:45;;;;;;;2.80;2.60;;;33.50;39.40;;;;;;5032798;28;20827;-67
2023/07/22 11:09:35;;;;;;;2.97;2.67;;;33.60;39.60;;;;;;5032397;28;20459;-67
2023/07/22 11:12:11;;;;;;;2.43;2.30;;;32.70;39.40;;;;;;5032842;28;20543;-67
2023/07/22 11:14:41;;;;;;;4.17;3.00;;;31.00;40.60;;;;;;5032359;28;20425;-67
2023/07/22 11:17:11;;;;;;;2.80;2.57;;;29.50;42.50;;;;;;5032586;28;20463;-69
2023/07/22 11:19:37;;;;;;;2.70;2.50;;;28.60;44.00;;;;;;5032359;28;20425;-70
2023/07/22 11:22:04;;;;;;;2.60;2.40;;;28.30;44.90;;;;;;5032359;28;20471;-69
2023/07/22 11:24:33;;;;;;;2.70;2.50;;;28.00;45.60;;;;;;5032456;28;20423;-69
2023/07/22 11:26:59;;;;;;;2.33;2.13;;;27.50;47.10;;;;;;5032415;28;20409;-69
2023/07/22 11:29:24;;;;;;;2.70;2.50;;;27.90;47.30;;;;;;5032022;28;20787;-69
2023/07/22 11:31:51;;;;;;;2.67;2.40;;;29.40;46.40;;;;;;5032186;28;20198;-69
2023/07/22 11:34:18;;;;;;;2.97;2.77;;;31.60;43.90;;;;;;5032399;28;20651;-69
2023/07/22 11:36:44;;;;;;;4.77;2.50;;;33.20;41.70;;;;;;5032322;28;20425;-69
2023/07/22 11:39:13;;;;;;;2.53;2.33;;;33.90;39.70;;;;;;5032031;28;20412;-69
2023/07/22 11:41:41;;;;;;;5.20;2.03;;;34.70;38.70;;;;;;5032091;28;20457;-69
2023/07/22 11:44:12;;;;;;;2.77;2.57;;;34.60;38.10;;;;;;5032154;28;20784;-69
2023/07/22 11:46:49;;;;;;;3.53;2.57;;;34.50;38.30;;;;;;5032400;28;20440;-67
2023/07/22 11:49:32;;;;;;;2.43;2.23;;;36.30;36.70;;;;;;5031839;28;20424;-67
2023/07/22 11:52:02;;;;;;;3.37;2.67;;;37.20;35.00;;;;;;5032062;28;20447;-67
2023/07/22 11:54:29;;;;;;;3.30;2.80;;;37.90;33.30;;;;;;5031972;28;20405;-67
2023/07/22 11:56:55;;;;;;;2.50;2.30;;;36.20;34.20;;;;;;5031891;28;20425;-67
2023/07/22 11:59:34;;;;;;;2.20;2.10;;;35.70;33.90;;;;;;5031661;28;20420;-67
2023/07/22 12:02:01;;;;;;;3.27;3.07;;;36.50;34.00;;;;;;5031726;28;20888;-67
2023/07/22 12:04:27;;;;;;;2.80;2.60;;;36.70;34.30;;;;;;5031858;28;20926;-67
2023/07/22 12:06:52;;;;;;;2.40;2.30;;;36.80;33.20;;;;;;5031829;28;20479;-67
2023/07/22 12:09:18;;;;;;;2.83;2.63;;;36.80;33.00;;;;;;5031483;28;20170;-67
2023/07/22 12:11:44;;;;;;;3.43;2.67;;;35.20;33.50;;;;;;5031742;28;20700;-67
2023/07/22 12:14:11;;;;;;;3.13;2.93;;;33.30;35.70;;;;;;5031801;28;20179;-69
2023/07/22 12:16:39;;;;;;;2.63;2.40;;;33.10;36.60;;;;;;5031933;28;20178;-69
2023/07/22 12:19:05;;;;;;;2.30;2.10;;;33.50;35.30;;;;;;5031424;28;20425;-69
2023/07/22 12:21:31;;;;;;;2.90;2.70;;;32.50;36.20;;;;;;5031624;28;20459;-69
2023/07/22 12:23:57;;;;;;;4.93;2.60;;;33.20;36.00;;;;;;5032245;28;21104;-67
2023/07/22 12:26:23;;;;;;;2.60;2.40;;;33.50;35.10;;;;;;5035742;28;20178;-67
2023/07/22 12:28:49;;;;;;;2.30;2.20;;;33.50;34.70;;;;;;5035506;28;20786;-67
2023/07/22 12:31:14;;;;;;;2.50;2.30;;;34.60;34.80;;;;;;5035665;28;20219;-67
2023/07/22 12:33:40;;;;;;;3.03;2.77;;;34.50;34.30;;;;;;5035700;28;20170;-67
2023/07/22 12:36:05;;;;;;;2.53;2.43;;;35.80;33.50;;;;;;5035534;28;20170;-67
2023/07/22 12:38:31;;;;;;;3.07;2.87;;;36.60;32.20;;;;;;5035140;28;20189;-67
2023/07/22 12:40:57;;;;;;;2.63;2.43;;;36.30;31.90;;;;;;5035345;28;20241;-67
2023/07/22 12:43:23;;;;;;;2.93;2.47;;;35.70;31.30;;;;;;5035403;28;20409;-67
2023/07/22 12:45:48;;;;;;;3.00;2.80;;;35.00;31.90;;;;;;5035438;28;20245;-69
2023/07/22 12:48:14;;;;;;;3.10;2.90;;;35.50;31.80;;;;;;5035080;28;20186;-69